Time;durP1;ratioP1;P1;durP2;ratioP2;P2;SDS_P1;SDS_P2;PMS_P1;PMS_P2;Temp;Humidity;BMP_temperature;BMP_pressure;BME280_temperature;BME280_humidity;BME280_pressure;Samples;Min_cycle;Max_cycle;Signal;HPM_P1;HPM_P2
2021/07/04 04:31:50;;;;;;;7.40;6.80;;;17.40;99.90;;;;;;5621463;23;21100;-75
2021/07/04 04:34:16;;;;;;;8.13;6.90;;;17.50;99.90;;;;;;4991234;28;20473;-77
2021/07/04 04:36:41;;;;;;;7.03;6.33;;;17.60;99.90;;;;;;4992600;28;20294;-77
2021/07/04 04:39:07;;;;;;;9.53;6.47;;;17.60;99.90;;;;;;4993853;28;20206;-77
2021/07/04 04:41:35;;;;;;;8.27;6.50;;;17.70;99.90;;;;;;4993734;28;20207;-77
2021/07/04 04:44:02;;;;;;;6.73;6.13;;;17.80;99.90;;;;;;4993953;28;20179;-77
2021/07/04 04:46:27;;;;;;;6.70;6.10;;;17.80;99.90;;;;;;4989350;28;20474;-77
2021/07/04 04:48:53;;;;;;;7.27;6.57;;;17.80;99.90;;;;;;4974945;28;20423;-78
2021/07/04 04:51:18;;;;;;;6.00;5.50;;;17.80;99.90;;;;;;4987074;28;20321;-78
2021/07/04 04:53:44;;;;;;;6.73;6.13;;;17.90;99.90;;;;;;4993604;28;20171;-78
2021/07/04 04:56:09;;;;;;;7.60;6.80;;;17.90;99.90;;;;;;4992806;28;20561;-77
2021/07/04 04:58:35;;;;;;;6.87;6.20;;;17.90;99.90;;;;;;4992066;28;20186;-77
2021/07/04 05:01:00;;;;;;;6.47;5.80;;;17.90;99.90;;;;;;4992378;28;20199;-77
2021/07/04 05:03:26;;;;;;;8.80;5.93;;;17.90;99.90;;;;;;4976010;28;20186;-77
2021/07/04 05:05:52;;;;;;;6.63;6.03;;;17.90;99.90;;;;;;4972149;28;20239;-77
2021/07/04 05:08:18;;;;;;;7.27;6.57;;;18.00;99.90;;;;;;4992363;28;20187;-77
2021/07/04 05:10:43;;;;;;;12.90;7.20;;;18.00;99.90;;;;;;4993194;28;20179;-77
2021/07/04 05:13:09;;;;;;;7.97;6.83;;;18.00;99.90;;;;;;4990883;28;20270;-77
2021/07/04 05:15:34;;;;;;;7.63;6.90;;;18.00;99.90;;;;;;4993318;28;20202;-77
2021/07/04 05:18:06;;;;;;;7.70;6.70;;;18.10;99.90;;;;;;4992246;28;20243;-77
2021/07/04 05:20:33;;;;;;;6.97;6.37;;;18.20;99.90;;;;;;4974937;28;20203;-76
2021/07/04 05:22:58;;;;;;;6.23;5.57;;;18.20;99.90;;;;;;4992209;28;20477;-77
2021/07/04 05:25:24;;;;;;;10.80;6.37;;;18.20;99.90;;;;;;4993102;28;20399;-77
2021/07/04 05:27:49;;;;;;;10.20;6.10;;;18.20;99.90;;;;;;4975230;28;20656;-76
2021/07/04 05:30:15;;;;;;;5.80;5.30;;;18.20;99.90;;;;;;4974927;28;20623;-77
2021/07/04 05:32:42;;;;;;;6.53;5.93;;;18.30;99.90;;;;;;4990032;28;20211;-76
2021/07/04 05:35:08;;;;;;;8.87;6.33;;;18.30;99.90;;;;;;4989831;28;21452;-76
2021/07/04 05:37:34;;;;;;;6.90;6.30;;;18.50;99.90;;;;;;4970432;28;20450;-77
2021/07/04 05:40:02;;;;;;;7.27;6.53;;;18.70;99.90;;;;;;4990702;28;20497;-77
2021/07/04 05:42:28;;;;;;;6.43;5.83;;;19.00;99.90;;;;;;4992741;28;20210;-77
2021/07/04 05:44:54;;;;;;;6.80;5.57;;;19.40;99.90;;;;;;4974517;28;20434;-77
2021/07/04 05:47:19;;;;;;;5.43;5.03;;;20.00;99.90;;;;;;4992009;28;20857;-77
2021/07/04 05:49:45;;;;;;;6.17;5.57;;;20.60;99.90;;;;;;4973985;28;20319;-77
2021/07/04 05:52:11;;;;;;;6.13;5.53;;;21.10;99.90;;;;;;4974328;28;20746;-77
2021/07/04 05:54:36;;;;;;;12.83;6.17;;;21.60;99.90;;;;;;4992461;28;20179;-77
2021/07/04 05:57:05;;;;;;;7.23;5.90;;;21.70;99.90;;;;;;4972929;28;20206;-77
2021/07/04 05:59:33;;;;;;;8.40;6.30;;;21.60;99.90;;;;;;4993314;28;20422;-75
2021/07/04 06:01:59;;;;;;;5.77;5.20;;;21.40;99.90;;;;;;4989581;28;20450;-75
2021/07/04 06:04:24;;;;;;;5.77;5.37;;;21.50;99.90;;;;;;4991614;28;20796;-75
2021/07/04 06:06:52;;;;;;;6.37;5.30;;;21.60;99.90;;;;;;4989523;28;20195;-75
2021/07/04 06:09:18;;;;;;;6.17;5.00;;;21.60;99.90;;;;;;4990527;28;20180;-76
2021/07/04 06:11:43;;;;;;;5.93;4.40;;;21.60;99.90;;;;;;4990844;28;20513;-76
2021/07/04 06:14:09;;;;;;;5.33;4.83;;;21.40;99.90;;;;;;4990326;28;20730;-76
2021/07/04 06:16:34;;;;;;;4.97;4.57;;;21.10;99.90;;;;;;4990469;28;20230;-75
2021/07/04 06:19:00;;;;;;;8.03;5.40;;;20.90;99.90;;;;;;4974434;28;20179;-75
2021/07/04 06:21:25;;;;;;;5.30;4.90;;;20.90;99.90;;;;;;4990441;28;20203;-75
2021/07/04 06:23:51;;;;;;;5.80;4.63;;;20.80;99.90;;;;;;4989366;28;20696;-77
2021/07/04 06:26:16;;;;;;;5.80;5.23;;;20.90;99.90;;;;;;4991511;28;20175;-75
2021/07/04 06:28:42;;;;;;;4.73;4.33;;;21.00;99.90;;;;;;4990364;28;20195;-75
2021/07/04 06:31:08;;;;;;;5.83;5.20;;;21.20;99.90;;;;;;4991427;28;20195;-75
2021/07/04 06:33:33;;;;;;;6.10;4.83;;;21.70;99.90;;;;;;4989540;28;20176;-76
2021/07/04 06:35:59;;;;;;;8.93;5.80;;;22.00;99.90;;;;;;4990110;28;20682;-75
2021/07/04 06:38:24;;;;;;;6.37;5.80;;;22.10;99.90;;;;;;4990141;28;20213;-75
2021/07/04 06:40:50;;;;;;;6.23;5.70;;;22.60;99.90;;;;;;4991346;28;20184;-75
2021/07/04 06:43:15;;;;;;;5.37;4.97;;;22.90;99.90;;;;;;4990501;28;20171;-75
2021/07/04 06:45:41;;;;;;;6.30;5.50;;;23.10;99.90;;;;;;4989860;28;20192;-76
2021/07/04 06:48:06;;;;;;;5.37;4.80;;;23.40;99.90;;;;;;4993265;28;20266;-76
2021/07/04 06:50:32;;;;;;;8.20;4.83;;;23.80;99.90;;;;;;4992577;28;20232;-76
2021/07/04 06:52:57;;;;;;;5.63;5.13;;;24.00;99.90;;;;;;4994788;28;20182;-75
2021/07/04 06:55:23;;;;;;;4.90;4.50;;;24.10;99.90;;;;;;4993419;28;20187;-75
2021/07/04 06:57:50;;;;;;;5.43;4.67;;;24.30;99.90;;;;;;4994834;28;20203;-75
2021/07/04 07:00:17;;;;;;;5.53;5.10;;;24.30;99.90;;;;;;4993476;28;20196;-77
2021/07/04 07:02:44;;;;;;;5.73;5.00;;;24.20;99.90;;;;;;4994296;28;20470;-75
2021/07/04 07:05:11;;;;;;;4.83;4.53;;;24.20;99.90;;;;;;4993451;28;20435;-77
2021/07/04 07:07:37;;;;;;;5.87;4.80;;;24.50;99.90;;;;;;4993397;28;20888;-76
2021/07/04 07:10:09;;;;;;;5.13;4.63;;;24.50;99.90;;;;;;4993119;28;20438;-77
2021/07/04 07:12:35;;;;;;;4.70;4.30;;;24.80;99.90;;;;;;5001560;28;20441;-75
2021/07/04 07:15:01;;;;;;;6.13;4.40;;;25.10;99.90;;;;;;5005514;28;20428;-77
2021/07/04 07:17:26;;;;;;;5.00;4.70;;;25.00;99.90;;;;;;4997268;28;20239;-78
2021/07/04 07:19:53;;;;;;;4.50;4.20;;;25.10;99.90;;;;;;4996900;28;21197;-77
2021/07/04 07:22:19;;;;;;;5.40;4.97;;;25.00;99.90;;;;;;4977245;28;20210;-77
2021/07/04 07:24:46;;;;;;;5.97;5.47;;;24.80;99.90;;;;;;4997432;28;20799;-77
2021/07/04 07:27:11;;;;;;;4.53;4.20;;;25.00;99.90;;;;;;4993961;28;20442;-77
2021/07/04 07:29:37;;;;;;;4.77;4.37;;;25.40;99.90;;;;;;4995873;28;20445;-77
2021/07/04 07:32:03;;;;;;;5.07;4.67;;;25.50;99.90;;;;;;4995093;28;20506;-78
2021/07/04 07:34:28;;;;;;;5.80;4.63;;;25.60;99.90;;;;;;4995319;28;20187;-77
2021/07/04 07:36:54;;;;;;;5.27;4.87;;;25.90;99.90;;;;;;4995498;28;20203;-78
2021/07/04 07:39:19;;;;;;;5.43;5.03;;;25.70;99.90;;;;;;4993948;28;20188;-77
2021/07/04 07:41:45;;;;;;;4.43;4.03;;;25.60;99.90;;;;;;4996957;28;20195;-78
2021/07/04 07:44:12;;;;;;;5.83;4.70;;;25.40;99.90;;;;;;4995486;28;20668;-77
2021/07/04 07:46:39;;;;;;;6.30;5.07;;;25.20;99.90;;;;;;4997267;28;20186;-77
2021/07/04 07:49:06;;;;;;;4.63;4.23;;;25.20;99.90;;;;;;4996091;28;20438;-78
2021/07/04 07:51:31;;;;;;;6.93;5.70;;;25.20;99.90;;;;;;4978671;28;20956;-78
2021/07/04 07:53:57;;;;;;;4.63;4.23;;;25.50;99.90;;;;;;4995529;28;20419;-77
2021/07/04 07:56:22;;;;;;;5.20;4.70;;;25.70;99.90;;;;;;4996467;28;20187;-78
2021/07/04 07:58:49;;;;;;;5.17;4.67;;;25.50;99.90;;;;;;4996554;28;20180;-77
2021/07/04 08:01:15;;;;;;;5.00;4.10;;;25.30;99.90;;;;;;4995225;28;20203;-78
2021/07/04 08:03:41;;;;;;;5.90;5.40;;;25.20;99.90;;;;;;4997051;28;20410;-77
2021/07/04 08:06:07;;;;;;;5.53;5.13;;;25.10;99.90;;;;;;4995602;28;20434;-77
2021/07/04 08:08:32;;;;;;;5.13;4.73;;;24.70;99.90;;;;;;4997205;28;20176;-77
2021/07/04 08:10:58;;;;;;;5.30;4.80;;;24.80;99.90;;;;;;4996579;28;20203;-77
2021/07/04 08:13:23;;;;;;;5.40;4.90;;;25.60;99.90;;;;;;4995721;28;20191;-78
2021/07/04 08:15:49;;;;;;;5.20;4.80;;;26.10;99.90;;;;;;4996002;28;20195;-77
2021/07/04 08:18:14;;;;;;;5.50;5.00;;;26.00;99.90;;;;;;4979794;28;20218;-77
2021/07/04 08:20:40;;;;;;;5.30;4.97;;;26.10;99.90;;;;;;4996526;28;20214;-78
2021/07/04 08:23:07;;;;;;;5.43;4.93;;;26.50;99.90;;;;;;4997497;28;20202;-78
2021/07/04 08:25:32;;;;;;;4.97;4.67;;;27.00;99.90;;;;;;4999756;28;20174;-78
2021/07/04 08:27:58;;;;;;;5.80;5.23;;;27.20;99.90;;;;;;4996765;28;20442;-78
2021/07/04 08:30:24;;;;;;;5.03;4.73;;;26.80;99.90;;;;;;4997837;28;20190;-78
2021/07/04 08:32:49;;;;;;;4.70;4.30;;;26.50;99.90;;;;;;4994903;28;20227;-78
2021/07/04 08:35:15;;;;;;;4.77;4.40;;;26.20;99.90;;;;;;4996157;28;20226;-78
2021/07/04 08:37:40;;;;;;;4.23;3.93;;;26.30;99.90;;;;;;4996885;28;20211;-78
2021/07/04 08:40:07;;;;;;;4.80;4.40;;;27.10;99.90;;;;;;4999066;28;20194;-78
2021/07/04 08:42:33;;;;;;;7.13;4.70;;;27.80;99.90;;;;;;5005738;28;20195;-78
2021/07/04 08:44:58;;;;;;;5.13;4.80;;;28.10;99.90;;;;;;4979190;28;20435;-78
2021/07/04 08:47:24;;;;;;;5.07;4.67;;;28.30;99.90;;;;;;4997798;28;20214;-78
2021/07/04 08:49:53;;;;;;;5.07;4.57;;;28.10;99.90;;;;;;4995296;28;20359;-77
2021/07/04 08:52:19;;;;;;;4.77;4.33;;;27.90;99.90;;;;;;4995735;28;20474;-78
2021/07/04 08:54:44;;;;;;;4.57;4.20;;;28.20;99.90;;;;;;4994863;28;20486;-77
2021/07/04 08:57:11;;;;;;;7.43;4.90;;;28.00;99.90;;;;;;4997536;28;20573;-78
2021/07/04 08:59:41;;;;;;;4.80;4.50;;;27.40;99.90;;;;;;4995913;28;20246;-78
2021/07/04 09:02:10;;;;;;;4.57;4.17;;;27.20;99.90;;;;;;4996662;28;20466;-78
2021/07/04 09:04:36;;;;;;;4.00;3.70;;;26.70;99.90;;;;;;4994617;28;20502;-78
2021/07/04 09:07:02;;;;;;;5.13;4.73;;;26.40;99.90;;;;;;4996615;28;20516;-78
2021/07/04 09:09:30;;;;;;;5.93;4.17;;;26.10;99.90;;;;;;4997544;28;20583;-78
2021/07/04 09:12:03;;;;;;;7.80;4.70;;;25.80;99.90;;;;;;4995655;28;20217;-78
2021/07/04 09:14:38;;;;;;;5.57;4.63;;;25.60;99.90;;;;;;4979449;28;20458;-78
2021/07/04 09:17:06;;;;;;;4.60;4.30;;;25.70;99.90;;;;;;4994697;28;20485;-78
2021/07/04 09:19:32;;;;;;;5.73;4.10;;;25.20;99.90;;;;;;4996421;28;20843;-78
2021/07/04 09:22:00;;;;;;;3.67;3.33;;;25.00;99.90;;;;;;4993710;28;20508;-77
2021/07/04 09:24:29;;;;;;;5.17;4.67;;;24.70;99.90;;;;;;4998447;28;20654;-78
2021/07/04 09:26:55;;;;;;;4.87;4.40;;;24.50;99.90;;;;;;4994372;28;20445;-78
2021/07/04 09:29:38;;;;;;;6.40;3.80;;;24.30;99.90;;;;;;4994783;28;20446;-78
2021/07/04 09:32:25;;;;;;;5.10;4.60;;;24.20;99.90;;;;;;4976990;28;20529;-77
2021/07/04 09:35:10;;;;;;;4.80;4.50;;;23.90;99.90;;;;;;4993289;28;20984;-78
2021/07/04 09:37:45;;;;;;;5.47;4.97;;;23.80;99.90;;;;;;4976682;28;20518;-77
2021/07/04 09:40:14;;;;;;;4.70;4.30;;;23.70;99.90;;;;;;4987016;28;20441;-71
2021/07/04 09:43:16;;;;;;;5.57;4.73;;;23.50;99.90;;;;;;4991888;28;20449;-71
2021/07/04 09:45:56;;;;;;;6.17;5.10;;;23.40;99.90;;;;;;4950946;28;20422;-71
2021/07/04 09:48:42;;;;;;;5.57;4.97;;;23.40;99.90;;;;;;4991870;28;20418;-71
2021/07/04 09:51:31;;;;;;;5.23;4.73;;;23.60;99.90;;;;;;4991110;28;20584;-72
2021/07/04 09:54:00;;;;;;;5.10;4.60;;;23.80;99.90;;;;;;4972111;28;20430;-71
2021/07/04 09:56:30;;;;;;;4.30;4.00;;;24.30;99.90;;;;;;4991894;28;20902;-71
2021/07/04 09:58:58;;;;;;;4.70;4.40;;;24.70;99.90;;;;;;4991621;28;20908;-72
2021/07/04 10:01:42;;;;;;;4.73;4.47;;;24.90;99.90;;;;;;4989791;28;20458;-71
2021/07/04 10:04:24;;;;;;;4.50;4.20;;;25.00;99.90;;;;;;4989153;28;20469;-71
2021/07/04 10:06:51;;;;;;;5.33;3.87;;;25.10;99.90;;;;;;4992389;28;20569;-71
2021/07/04 10:09:19;;;;;;;4.13;3.73;;;25.10;99.90;;;;;;4992180;28;20421;-72
2021/07/04 10:11:45;;;;;;;4.23;3.93;;;25.20;99.90;;;;;;4989452;28;20465;-71
2021/07/04 10:14:10;;;;;;;3.70;3.40;;;25.40;99.90;;;;;;4992549;28;20449;-72
2021/07/04 10:16:40;;;;;;;7.83;4.00;;;25.70;99.90;;;;;;4990516;28;20521;-71
2021/07/04 10:19:05;;;;;;;3.57;3.37;;;25.80;99.90;;;;;;4991561;28;20173;-71
2021/07/04 10:21:33;;;;;;;4.03;3.73;;;25.80;99.90;;;;;;4989900;28;20825;-71
2021/07/04 10:23:59;;;;;;;3.73;3.43;;;25.80;99.90;;;;;;4994932;28;20183;-71
2021/07/04 10:26:28;;;;;;;3.30;3.10;;;25.70;99.90;;;;;;4995625;28;20417;-70
2021/07/04 10:28:58;;;;;;;4.10;3.67;;;25.80;99.90;;;;;;4994619;28;20434;-71
2021/07/04 10:31:30;;;;;;;3.03;2.83;;;25.80;99.90;;;;;;4995154;28;20446;-71
2021/07/04 10:34:09;;;;;;;4.20;3.90;;;26.00;99.90;;;;;;4990673;28;20446;-71
2021/07/04 10:37:01;;;;;;;4.30;3.90;;;26.20;99.90;;;;;;4983744;28;20433;-71
2021/07/04 10:39:28;;;;;;;3.30;3.00;;;25.80;99.90;;;;;;4993935;28;20441;-72
2021/07/04 10:42:06;;;;;;;3.77;3.57;;;25.70;99.90;;;;;;4994805;28;20449;-71
2021/07/04 10:44:49;;;;;;;3.10;2.90;;;25.70;99.90;;;;;;4993422;28;20536;-71
2021/07/04 10:47:27;;;;;;;3.60;3.30;;;25.30;99.90;;;;;;4994860;28;20780;-71
2021/07/04 10:50:06;;;;;;;3.40;3.17;;;25.20;99.90;;;;;;4994499;28;20430;-71
2021/07/04 10:52:35;;;;;;;4.03;3.10;;;25.20;99.90;;;;;;4994911;28;20434;-71
2021/07/04 10:55:03;;;;;;;3.77;3.47;;;25.20;99.90;;;;;;4994023;28;20786;-71
2021/07/04 10:57:34;;;;;;;4.73;4.37;;;25.10;99.90;;;;;;4994416;28;20497;-71
2021/07/04 11:00:00;;;;;;;6.47;4.10;;;25.10;99.90;;;;;;4994845;28;20417;-71
2021/07/04 11:02:50;;;;;;;4.13;3.83;;;25.00;99.90;;;;;;4993845;28;20454;-71
2021/07/04 11:05:38;;;;;;;4.60;4.30;;;24.90;99.90;;;;;;4994592;28;20182;-71
2021/07/04 11:08:17;;;;;;;3.87;3.63;;;24.60;99.90;;;;;;4992862;28;20521;-70
2021/07/04 11:10:48;;;;;;;4.50;4.10;;;24.30;99.90;;;;;;4994345;28;20414;-71
2021/07/04 11:13:20;;;;;;;3.90;3.70;;;24.10;99.90;;;;;;4993072;28;20438;-71
2021/07/04 11:15:49;;;;;;;4.87;4.03;;;24.00;99.90;;;;;;4994529;28;20779;-71
2021/07/04 11:18:15;;;;;;;4.10;3.80;;;24.00;99.90;;;;;;4992880;28;20477;-71
2021/07/04 11:20:42;;;;;;;4.07;3.77;;;23.90;99.90;;;;;;4994413;28;20778;-72
2021/07/04 11:23:20;;;;;;;4.53;3.90;;;24.00;99.90;;;;;;4992575;28;20774;-71
2021/07/04 11:26:01;;;;;;;3.90;3.60;;;24.00;99.90;;;;;;4994055;28;20848;-71
2021/07/04 11:28:35;;;;;;;4.10;3.80;;;24.10;99.90;;;;;;4994212;28;20414;-71
2021/07/04 11:31:06;;;;;;;5.17;4.77;;;24.40;99.90;;;;;;4993163;28;20899;-71
2021/07/04 11:33:40;;;;;;;4.13;3.83;;;24.70;99.90;;;;;;4993991;28;20418;-71
2021/07/04 11:36:10;;;;;;;4.30;3.93;;;25.00;99.90;;;;;;4994072;28;20447;-71
2021/07/04 11:38:39;;;;;;;4.60;4.27;;;25.20;99.90;;;;;;4993798;28;20493;-69
2021/07/04 11:41:07;;;;;;;4.77;4.37;;;25.30;99.90;;;;;;4993857;28;20434;-71
2021/07/04 11:43:34;;;;;;;4.40;4.10;;;25.40;99.90;;;;;;4993874;28;20434;-71
2021/07/04 11:46:08;;;;;;;4.77;4.37;;;25.50;99.90;;;;;;4993787;28;20498;-71
2021/07/04 11:48:49;;;;;;;4.03;3.73;;;25.50;99.90;;;;;;4993673;28;20440;-72
2021/07/04 11:51:50;;;;;;;5.03;4.73;;;25.60;99.90;;;;;;4993680;28;20556;-71
2021/07/04 11:54:25;;;;;;;4.40;4.10;;;25.70;99.90;;;;;;4990071;28;20441;-71
2021/07/04 11:56:55;;;;;;;3.63;3.43;;;25.50;99.90;;;;;;4993720;28;20441;-71
2021/07/04 11:59:27;;;;;;;4.03;3.70;;;25.20;99.90;;;;;;4994225;28;20406;-71
2021/07/04 12:02:00;;;;;;;5.00;3.90;;;25.20;99.90;;;;;;4993282;28;20780;-71
2021/07/04 12:04:45;;;;;;;12.00;3.70;;;25.20;99.90;;;;;;4993594;28;20395;-71
2021/07/04 12:07:13;;;;;;;4.17;3.87;;;25.10;99.90;;;;;;4993637;28;20414;-71
2021/07/04 12:09:51;;;;;;;5.10;4.57;;;24.90;99.90;;;;;;4993366;28;20419;-71
2021/07/04 12:12:25;;;;;;;5.20;4.43;;;24.70;99.90;;;;;;4993473;28;20466;-71
2021/07/04 12:15:02;;;;;;;5.53;5.13;;;24.60;99.90;;;;;;4993175;28;20410;-71
2021/07/04 12:17:48;;;;;;;5.90;5.07;;;24.60;99.90;;;;;;4993286;28;20544;-71
2021/07/04 12:20:17;;;;;;;5.73;5.03;;;24.50;99.90;;;;;;4993072;28;20912;-71
2021/07/04 12:23:02;;;;;;;6.63;5.77;;;24.50;99.90;;;;;;4992899;28;20438;-69
2021/07/04 12:25:30;;;;;;;5.40;4.87;;;24.60;99.90;;;;;;4993425;28;20407;-71
2021/07/04 12:28:07;;;;;;;5.43;4.93;;;24.60;99.90;;;;;;4993245;28;20442;-71
2021/07/04 12:30:36;;;;;;;6.33;5.13;;;24.60;99.90;;;;;;4993221;28;20537;-71
2021/07/04 12:33:09;;;;;;;4.97;4.60;;;24.70;99.90;;;;;;4993392;28;20582;-71
2021/07/04 12:35:34;;;;;;;5.73;5.20;;;24.80;99.90;;;;;;4993289;28;20423;-71
2021/07/04 12:38:07;;;;;;;5.27;4.87;;;25.10;99.90;;;;;;4992988;28;21029;-70
2021/07/04 12:40:35;;;;;;;9.20;8.40;;;25.20;99.90;;;;;;4993283;28;20181;-71
2021/07/04 12:43:12;;;;;;;6.80;6.03;;;25.40;99.90;;;;;;4993035;28;20414;-71
2021/07/04 12:45:46;;;;;;;5.57;5.17;;;25.40;99.90;;;;;;4992753;28;20899;-71
2021/07/04 12:48:13;;;;;;;6.13;5.63;;;25.60;99.90;;;;;;4992354;28;20417;-72
2021/07/04 12:50:45;;;;;;;5.00;4.70;;;25.90;99.90;;;;;;4992759;28;20239;-71
2021/07/04 12:53:11;;;;;;;5.37;4.80;;;26.10;99.90;;;;;;4992685;28;20476;-72
2021/07/04 12:55:49;;;;;;;5.60;5.10;;;26.20;99.90;;;;;;4992970;28;20509;-72
2021/07/04 12:58:27;;;;;;;5.33;4.93;;;26.50;99.90;;;;;;4992518;28;20505;-71
2021/07/04 13:01:11;;;;;;;8.17;4.80;;;26.40;99.90;;;;;;4994863;28;20441;-71
2021/07/04 13:03:38;;;;;;;6.97;5.50;;;26.30;99.90;;;;;;4992959;28;20429;-65
2021/07/04 13:06:05;;;;;;;5.50;5.00;;;25.80;99.90;;;;;;4992015;28;20444;-66
2021/07/04 13:08:31;;;;;;;5.83;5.23;;;25.60;99.90;;;;;;4992250;28;20175;-65
2021/07/04 13:10:57;;;;;;;5.60;5.07;;;25.30;99.90;;;;;;4992083;28;20474;-65
2021/07/04 13:13:22;;;;;;;5.23;4.83;;;25.20;99.90;;;;;;4992078;28;20446;-66
2021/07/04 13:15:48;;;;;;;5.87;5.33;;;25.10;99.90;;;;;;4992175;28;20590;-65
2021/07/04 13:18:30;;;;;;;5.20;4.83;;;24.60;99.90;;;;;;4992042;28;20529;-66
2021/07/04 13:20:56;;;;;;;6.47;5.80;;;24.70;99.90;;;;;;4991916;28;20290;-64
2021/07/04 13:23:22;;;;;;;5.40;4.90;;;24.80;99.90;;;;;;4992070;28;20403;-64
2021/07/04 13:25:54;;;;;;;5.80;5.30;;;24.80;99.90;;;;;;4988503;28;20448;-64
2021/07/04 13:28:29;;;;;;;7.00;5.80;;;24.90;99.90;;;;;;4992263;28;20266;-66
2021/07/04 13:30:55;;;;;;;6.67;5.97;;;25.00;99.90;;;;;;4974359;28;20469;-66
2021/07/04 13:33:37;;;;;;;5.60;5.20;;;24.90;99.90;;;;;;4992333;28;20407;-66
2021/07/04 13:36:15;;;;;;;5.97;5.47;;;24.70;99.90;;;;;;4992050;28;20473;-64
2021/07/04 13:39:02;;;;;;;6.40;5.90;;;24.60;99.90;;;;;;4992123;28;20516;-65
2021/07/04 13:41:28;;;;;;;5.90;5.40;;;24.40;99.90;;;;;;4991598;28;20919;-65
2021/07/04 13:43:54;;;;;;;6.53;5.93;;;24.10;99.90;;;;;;4974083;28;20464;-64
2021/07/04 13:46:20;;;;;;;10.50;5.17;;;23.90;99.90;;;;;;4991668;28;20418;-65
2021/07/04 13:48:45;;;;;;;5.47;4.70;;;23.90;99.90;;;;;;4991680;28;20187;-65
2021/07/04 13:51:11;;;;;;;5.20;4.90;;;23.90;99.90;;;;;;4991633;28;20207;-65
2021/07/04 13:53:37;;;;;;;5.37;5.00;;;23.80;99.90;;;;;;4991374;28;20234;-72
2021/07/04 13:56:03;;;;;;;4.93;4.53;;;23.80;99.90;;;;;;4991340;28;20181;-71
2021/07/04 13:58:29;;;;;;;5.87;5.23;;;23.70;99.90;;;;;;4990642;28;20552;-71
2021/07/04 14:00:58;;;;;;;5.70;5.20;;;23.60;99.90;;;;;;4991564;28;20175;-71
2021/07/04 14:03:24;;;;;;;5.10;4.70;;;23.80;99.90;;;;;;4991478;28;20835;-71
2021/07/04 14:05:50;;;;;;;4.40;3.70;;;23.90;99.90;;;;;;4991608;28;20931;-70
2021/07/04 14:08:16;;;;;;;4.30;3.73;;;23.80;99.90;;;;;;4991391;28;20442;-70
2021/07/04 14:10:44;;;;;;;2.93;2.70;;;23.80;99.90;;;;;;4991314;28;20183;-71
2021/07/04 14:13:10;;;;;;;3.83;2.93;;;23.80;99.90;;;;;;4991142;28;20191;-71
2021/07/04 14:15:36;;;;;;;3.40;3.10;;;23.80;99.90;;;;;;4991606;28;20422;-72
2021/07/04 14:18:02;;;;;;;1.93;1.83;;;23.90;99.90;;;;;;4991533;28;20975;-72
2021/07/04 14:20:28;;;;;;;1.90;1.80;;;23.80;99.90;;;;;;4991914;28;20422;-72
2021/07/04 14:22:53;;;;;;;2.03;1.93;;;23.80;99.90;;;;;;4993886;28;20685;-72
2021/07/04 14:25:21;;;;;;;1.57;1.47;;;23.80;99.90;;;;;;4992802;28;20190;-72
2021/07/04 14:27:48;;;;;;;2.13;1.40;;;23.60;99.90;;;;;;4993045;28;20207;-72
2021/07/04 14:30:16;;;;;;;3.33;1.90;;;23.50;99.90;;;;;;4991822;28;20896;-72
2021/07/04 14:32:42;;;;;;;2.00;1.90;;;23.40;99.90;;;;;;4992097;28;20458;-70
2021/07/04 14:35:09;;;;;;;2.10;1.93;;;23.40;99.90;;;;;;4991695;28;20449;-72
2021/07/04 14:37:35;;;;;;;3.33;1.83;;;23.30;99.90;;;;;;4990072;28;20652;-72
2021/07/04 14:40:01;;;;;;;2.00;1.80;;;23.40;99.90;;;;;;4991207;28;20426;-72
2021/07/04 14:42:26;;;;;;;2.47;2.27;;;23.40;99.90;;;;;;4991111;28;20861;-72
2021/07/04 14:44:54;;;;;;;3.63;2.50;;;23.50;99.90;;;;;;4991009;28;20422;-72
2021/07/04 14:47:20;;;;;;;2.10;2.00;;;23.50;99.90;;;;;;4991260;28;20211;-70
2021/07/04 14:49:46;;;;;;;3.73;2.40;;;23.60;99.90;;;;;;4991030;28;20422;-71
2021/07/04 14:52:15;;;;;;;3.73;2.90;;;23.60;99.90;;;;;;4990787;28;20203;-72
2021/07/04 14:55:02;;;;;;;4.87;2.80;;;23.70;99.90;;;;;;4990824;28;20421;-72
2021/07/04 14:57:28;;;;;;;3.97;3.37;;;23.60;99.90;;;;;;4990577;28;20474;-72
2021/07/04 14:59:54;;;;;;;3.10;2.90;;;23.60;99.90;;;;;;4973421;28;20932;-72
2021/07/04 15:02:21;;;;;;;3.17;2.97;;;23.60;99.90;;;;;;4990961;28;20585;-71
2021/07/04 15:04:48;;;;;;;4.00;3.47;;;23.60;99.90;;;;;;4990999;28;20176;-71
2021/07/04 15:07:15;;;;;;;2.60;2.50;;;23.50;99.90;;;;;;4990837;28;20823;-71
2021/07/04 15:09:41;;;;;;;6.50;2.70;;;23.40;99.90;;;;;;4993972;28;20423;-71
2021/07/04 15:12:08;;;;;;;3.53;2.97;;;23.50;99.90;;;;;;4994386;28;20450;-71
2021/07/04 15:14:34;;;;;;;3.37;3.10;;;23.50;99.90;;;;;;4994227;28;20477;-72
2021/07/04 15:16:59;;;;;;;3.40;3.10;;;23.60;99.90;;;;;;4994121;28;20490;-72
2021/07/04 15:19:25;;;;;;;2.70;2.47;;;23.80;99.90;;;;;;4995721;28;20175;-72
2021/07/04 15:21:50;;;;;;;2.70;2.50;;;23.80;99.90;;;;;;5013567;28;20206;-72
2021/07/04 15:24:16;;;;;;;3.20;3.00;;;23.90;99.90;;;;;;4995900;28;20183;-72
2021/07/04 15:26:41;;;;;;;4.13;3.70;;;23.90;99.90;;;;;;5013930;28;20177;-72
2021/07/04 15:29:07;;;;;;;2.93;2.73;;;23.90;99.90;;;;;;5013375;28;20217;-71
2021/07/04 15:31:34;;;;;;;3.00;2.33;;;23.90;99.90;;;;;;5013618;28;20261;-72
2021/07/04 15:34:00;;;;;;;2.77;2.57;;;23.90;99.90;;;;;;5013463;28;20185;-72
2021/07/04 15:36:32;;;;;;;2.20;2.10;;;23.80;99.90;;;;;;5013633;28;20425;-71
2021/07/04 15:38:58;;;;;;;2.83;2.20;;;23.60;99.90;;;;;;5013466;28;20793;-71
2021/07/04 15:41:24;;;;;;;2.37;2.13;;;23.40;99.90;;;;;;5013432;28;20417;-71
2021/07/04 15:43:49;;;;;;;2.20;2.10;;;23.30;99.90;;;;;;5014613;28;20413;-72
2021/07/04 15:46:15;;;;;;;3.70;2.30;;;23.10;99.90;;;;;;5014794;28;20171;-72
2021/07/04 15:48:40;;;;;;;2.60;2.40;;;22.90;99.90;;;;;;5014078;28;20179;-72
2021/07/04 15:51:06;;;;;;;2.63;2.47;;;22.80;99.90;;;;;;5014373;28;20707;-71
2021/07/04 15:53:32;;;;;;;2.40;2.20;;;22.60;99.90;;;;;;5013989;28;20258;-72
2021/07/04 15:55:58;;;;;;;2.77;2.57;;;22.50;99.90;;;;;;5013332;28;20203;-72
2021/07/04 15:58:23;;;;;;;2.17;1.97;;;22.40;99.90;;;;;;5013078;28;20293;-72
2021/07/04 16:00:50;;;;;;;2.27;2.17;;;22.30;99.90;;;;;;5012843;28;20974;-71
2021/07/04 16:03:17;;;;;;;2.40;2.20;;;22.20;99.90;;;;;;5013078;28;20194;-71
2021/07/04 16:05:43;;;;;;;2.10;2.00;;;21.80;99.90;;;;;;5013135;28;20903;-72
2021/07/04 16:08:10;;;;;;;1.90;1.80;;;21.60;99.90;;;;;;5012981;28;20444;-72
2021/07/04 16:10:36;;;;;;;3.63;1.00;;;21.50;99.90;;;;;;5013054;28;20429;-71
2021/07/04 16:13:03;;;;;;;1.10;1.10;;;21.30;99.90;;;;;;5012389;28;20414;-71
2021/07/04 16:15:29;;;;;;;1.07;0.97;;;21.00;99.90;;;;;;5013361;28;21027;-73
2021/07/04 16:17:55;;;;;;;1.27;0.97;;;20.90;99.90;;;;;;5012912;28;20465;-72
2021/07/04 16:20:21;;;;;;;0.90;0.70;;;20.70;99.90;;;;;;4994694;28;20201;-73
2021/07/04 16:22:46;;;;;;;2.63;1.30;;;20.70;99.90;;;;;;5012602;28;20199;-73
2021/07/04 16:25:14;;;;;;;1.87;0.93;;;20.60;99.90;;;;;;5012659;28;20178;-74
2021/07/04 16:27:40;;;;;;;1.00;0.90;;;20.50;99.90;;;;;;5013027;28;20344;-72
2021/07/04 16:30:08;;;;;;;0.90;0.90;;;20.40;99.90;;;;;;5012433;28;20421;-74
2021/07/04 16:32:34;;;;;;;1.00;0.90;;;20.20;99.90;;;;;;5012835;28;20449;-75
2021/07/04 16:35:00;;;;;;;1.03;0.90;;;20.10;99.90;;;;;;5013144;28;20414;-74
2021/07/04 16:37:27;;;;;;;0.90;0.90;;;20.00;99.90;;;;;;5013105;28;20612;-74
2021/07/04 16:39:52;;;;;;;0.90;0.90;;;19.90;99.90;;;;;;5012783;28;20413;-74
2021/07/04 16:42:18;;;;;;;0.80;0.80;;;19.90;99.90;;;;;;5012594;28;20460;-73
2021/07/04 16:44:44;;;;;;;2.07;1.13;;;20.00;99.90;;;;;;5012795;28;20177;-73
2021/07/04 16:47:10;;;;;;;1.00;1.00;;;19.90;99.90;;;;;;5012568;28;20788;-73
2021/07/04 16:49:35;;;;;;;0.90;0.80;;;20.00;99.90;;;;;;5012606;28;20171;-73
2021/07/04 16:52:01;;;;;;;0.70;0.70;;;19.90;99.90;;;;;;5012524;28;20278;-73
2021/07/04 16:54:27;;;;;;;1.37;0.77;;;19.80;99.90;;;;;;5012687;28;20191;-73
2021/07/04 16:56:52;;;;;;;2.10;1.33;;;19.70;99.90;;;;;;5012335;28;20553;-73
2021/07/04 16:59:18;;;;;;;1.47;0.93;;;19.70;99.90;;;;;;5012587;28;20523;-73
2021/07/04 17:01:43;;;;;;;0.90;0.90;;;19.80;99.90;;;;;;5012276;28;20217;-73
2021/07/04 17:04:09;;;;;;;3.30;1.10;;;19.80;99.90;;;;;;4994394;28;20178;-73
2021/07/04 17:06:34;;;;;;;0.80;0.80;;;19.80;99.90;;;;;;5008689;28;20170;-73
2021/07/04 17:09:00;;;;;;;2.73;0.93;;;19.90;99.90;;;;;;4999138;28;20242;-73
2021/07/04 17:11:26;;;;;;;1.40;0.73;;;19.80;99.90;;;;;;5009903;28;20203;-72
2021/07/04 17:13:51;;;;;;;0.90;0.70;;;19.80;99.90;;;;;;5011742;28;20178;-73
2021/07/04 17:16:18;;;;;;;0.70;0.70;;;19.70;99.90;;;;;;5011833;28;20192;-73
2021/07/04 17:18:45;;;;;;;1.17;0.80;;;19.60;99.90;;;;;;5011533;28;20214;-73
2021/07/04 17:21:11;;;;;;;0.80;0.70;;;19.60;99.90;;;;;;5011311;28;20798;-73
2021/07/04 17:23:37;;;;;;;1.23;0.80;;;19.50;99.90;;;;;;5011496;28;20418;-74